Idalou, Texas
Current Conditions -  °F | °C
As of 1:53 AM on Friday 28 Nov 2014 (Local Time) from KLBB Reporting Station
Few Clouds Few Clouds  
Wind Chill: 40°   Ceiling: Unl
Heat Index: 46°   Visibility: 10mi
Dew Point: 29°   Wind: 15mph
Humidity: 51%   Direction: 230°SW
Pressure: 30.2"   Gusts: 24mph
Location:  33.67°N, 101.68°W
Report Text: KLBB 280753Z 23013G21KT 10SM FEW260 08/M02 A3020 RMK AO2 SLP208 T00781017
Loading
Personal Weather Stations






























Interactive Weather Map New forecast layout! Learn more

10-Day Weather Forecast

Advertisements
Track Severe Weather on mobile